Time;durP1;ratioP1;P1;durP2;ratioP2;P2;SDS_P1;SDS_P2;PMS_P1;PMS_P2;Temp;Humidity;BMP_temperature;BMP_pressure;BME280_temperature;BME280_humidity;BME280_pressure;Samples;Min_cycle;Max_cycle;Signal;HPM_P1;HPM_P2
2023/12/24 00:00:01;;;;;;;1.98;1.10;;;9.00;99.90;;;;;;5030978;28;20069;-79
2023/12/24 00:02:26;;;;;;;4.70;1.88;;;8.80;99.90;;;;;;5014463;28;20049;-80
2023/12/24 00:04:52;;;;;;;2.13;1.35;;;8.80;99.90;;;;;;5014616;28;20042;-80
2023/12/24 00:07:18;;;;;;;3.50;1.42;;;8.80;99.90;;;;;;5031162;28;20045;-80
2023/12/24 00:09:44;;;;;;;2.05;1.38;;;8.80;99.90;;;;;;5030884;28;20084;-79
2023/12/24 00:12:09;;;;;;;1.42;1.33;;;8.80;99.90;;;;;;5031000;28;20152;-83
2023/12/24 00:14:37;;;;;;;1.45;1.10;;;8.80;99.90;;;;;;5031021;28;20512;-84
2023/12/24 00:17:03;;;;;;;2.33;0.98;;;8.80;99.90;;;;;;5031717;28;20068;-83
2023/12/24 00:19:29;;;;;;;3.00;1.27;;;8.90;99.90;;;;;;5018401;28;20041;-84
2023/12/24 00:21:55;;;;;;;2.60;1.00;;;8.80;99.90;;;;;;5018383;28;20132;-83
2023/12/24 00:24:21;;;;;;;2.75;1.50;;;8.80;99.90;;;;;;5034666;28;20052;-83
2023/12/24 00:26:46;;;;;;;1.67;1.20;;;8.80;99.90;;;;;;5034532;28;20041;-83
2023/12/24 00:29:12;;;;;;;1.10;1.02;;;8.80;99.90;;;;;;5034500;28;20464;-83
2023/12/24 00:31:38;;;;;;;2.00;1.35;;;8.80;99.90;;;;;;5034735;28;20493;-81
2023/12/24 00:34:03;;;;;;;2.17;1.17;;;8.80;99.90;;;;;;5034937;28;20408;-84
2023/12/24 00:36:29;;;;;;;3.17;1.17;;;8.80;99.90;;;;;;5018515;28;20042;-84
2023/12/24 00:38:55;;;;;;;2.22;1.38;;;8.80;99.90;;;;;;5034821;28;20037;-83
2023/12/24 00:41:20;;;;;;;2.13;1.45;;;8.80;99.90;;;;;;5018540;28;20041;-84
2023/12/24 00:43:46;;;;;;;1.75;1.20;;;8.80;99.90;;;;;;5017943;28;20095;-83
2023/12/24 00:46:15;;;;;;;2.45;1.38;;;8.80;99.90;;;;;;5034561;28;20046;-84
2023/12/24 00:48:41;;;;;;;2.10;1.17;;;8.80;99.90;;;;;;5034062;28;20052;-84
2023/12/24 00:51:07;;;;;;;2.42;1.50;;;8.90;99.90;;;;;;5033820;28;20034;-82
2023/12/24 00:53:33;;;;;;;2.78;1.60;;;8.80;99.90;;;;;;5018433;28;20041;-83
2023/12/24 00:55:59;;;;;;;1.75;1.30;;;8.80;99.90;;;;;;5017448;28;20232;-84
2023/12/24 00:58:26;;;;;;;3.47;1.55;;;8.80;99.90;;;;;;5017461;28;20124;-85
2023/12/24 01:00:52;;;;;;;2.90;1.48;;;8.80;99.90;;;;;;5017689;28;20045;-84
2023/12/24 01:03:18;;;;;;;2.03;1.27;;;8.90;99.90;;;;;;5034649;28;20048;-84
2023/12/24 01:05:43;;;;;;;2.15;1.40;;;8.80;99.90;;;;;;5034437;28;20050;-83
2023/12/24 01:08:09;;;;;;;1.92;1.35;;;8.80;99.90;;;;;;5034016;28;20099;-82
2023/12/24 01:10:35;;;;;;;2.35;1.20;;;8.90;99.90;;;;;;5017457;28;20124;-83
2023/12/24 01:13:00;;;;;;;3.05;1.27;;;8.90;99.90;;;;;;5033943;28;20045;-85
2023/12/24 01:15:26;;;;;;;1.52;1.10;;;8.80;99.90;;;;;;5017693;28;20439;-84
2023/12/24 01:17:52;;;;;;;1.85;1.33;;;8.80;99.90;;;;;;5034000;28;20128;-83
2023/12/24 01:20:21;;;;;;;2.05;1.60;;;8.80;99.90;;;;;;5017351;28;20497;-84
2023/12/24 01:22:46;;;;;;;2.25;1.23;;;8.90;99.90;;;;;;5033618;28;20410;-84
2023/12/24 01:25:12;;;;;;;1.42;1.10;;;8.90;99.90;;;;;;5033535;28;20037;-84
2023/12/24 01:27:38;;;;;;;2.70;1.60;;;8.80;99.90;;;;;;5033194;28;20048;-84
2023/12/24 01:30:04;;;;;;;1.60;1.30;;;8.90;99.90;;;;;;5016632;28;20494;-84
2023/12/24 01:32:31;;;;;;;1.70;1.10;;;8.90;99.90;;;;;;5034004;28;20042;-83
2023/12/24 01:34:57;;;;;;;1.67;1.27;;;8.90;99.90;;;;;;5033219;28;20038;-83
2023/12/24 01:37:23;;;;;;;1.70;1.17;;;8.80;99.90;;;;;;5016932;28;20043;-83
2023/12/24 01:39:48;;;;;;;2.03;1.50;;;8.90;99.90;;;;;;5033684;28;20037;-82
2023/12/24 01:42:14;;;;;;;1.77;1.10;;;8.90;99.90;;;;;;5033534;28;20048;-85
2023/12/24 01:44:40;;;;;;;1.02;0.85;;;8.90;99.90;;;;;;5016535;28;20517;-83
2023/12/24 01:47:07;;;;;;;2.67;1.30;;;8.80;99.90;;;;;;5016808;28;20136;-83
2023/12/24 01:49:34;;;;;;;1.73;1.13;;;8.80;99.90;;;;;;5033196;28;20099;-84
2023/12/24 01:52:00;;;;;;;1.77;0.80;;;8.80;99.90;;;;;;5032689;28;20045;-76
2023/12/24 01:54:26;;;;;;;1.35;1.02;;;8.90;99.90;;;;;;5032615;28;20386;-76
2023/12/24 01:56:52;;;;;;;1.13;0.95;;;8.80;99.90;;;;;;5032503;28;20406;-76
2023/12/24 01:59:19;;;;;;;2.20;0.82;;;8.80;99.90;;;;;;5016022;28;20104;-76
2023/12/24 02:01:46;;;;;;;1.15;0.73;;;8.90;99.90;;;;;;5016107;28;20135;-76
2023/12/24 02:04:14;;;;;;;0.93;0.70;;;8.90;99.90;;;;;;5032385;28;20417;-76
2023/12/24 02:06:40;;;;;;;2.05;0.77;;;8.90;99.90;;;;;;5032458;28;20045;-77
2023/12/24 02:09:05;;;;;;;1.23;0.93;;;8.80;99.90;;;;;;5032260;28;20497;-76
2023/12/24 02:11:31;;;;;;;0.70;0.70;;;8.90;99.90;;;;;;5032386;28;20045;-76
2023/12/24 02:13:57;;;;;;;1.23;0.88;;;8.80;99.90;;;;;;5032391;28;20044;-76
2023/12/24 02:16:24;;;;;;;0.70;0.70;;;8.80;99.90;;;;;;5015694;28;20045;-75
2023/12/24 02:18:50;;;;;;;1.50;0.73;;;8.80;99.90;;;;;;5032283;28;20045;-76
2023/12/24 02:21:16;;;;;;;0.63;0.63;;;8.80;99.90;;;;;;5032289;28;20037;-76
2023/12/24 02:23:42;;;;;;;0.60;0.60;;;8.80;99.90;;;;;;5032294;28;20048;-76
2023/12/24 02:26:16;;;;;;;0.63;0.63;;;8.90;99.90;;;;;;5032287;28;20072;-76
2023/12/24 02:28:44;;;;;;;2.78;0.80;;;8.90;99.90;;;;;;5031946;28;20499;-76
2023/12/24 02:31:11;;;;;;;0.70;0.70;;;8.80;99.90;;;;;;5032153;28;20050;-80
2023/12/24 02:33:41;;;;;;;0.77;0.75;;;8.90;99.90;;;;;;5031831;28;20099;-80
2023/12/24 02:36:11;;;;;;;0.98;0.55;;;8.90;99.90;;;;;;5015542;28;20477;-80
2023/12/24 02:38:37;;;;;;;0.63;0.60;;;9.00;99.90;;;;;;5031783;28;20087;-80
2023/12/24 02:41:03;;;;;;;0.63;0.57;;;8.90;99.90;;;;;;5031081;28;20069;-80
2023/12/24 02:43:30;;;;;;;0.77;0.60;;;8.90;99.90;;;;;;5031597;28;20409;-80
2023/12/24 02:45:56;;;;;;;1.13;0.80;;;8.90;99.90;;;;;;5031792;28;20566;-80
2023/12/24 02:48:21;;;;;;;1.15;0.75;;;8.90;99.90;;;;;;5031957;28;20037;-80
2023/12/24 02:50:47;;;;;;;0.70;0.70;;;8.90;99.90;;;;;;5031836;28;20077;-80
2023/12/24 02:53:13;;;;;;;1.13;0.82;;;8.90;99.90;;;;;;5015041;28;20077;-79
2023/12/24 02:55:39;;;;;;;1.40;0.82;;;9.00;99.90;;;;;;5031506;28;20034;-80
2023/12/24 02:58:04;;;;;;;0.90;0.60;;;9.00;99.90;;;;;;5015117;28;20103;-79
2023/12/24 03:00:30;;;;;;;0.73;0.73;;;9.00;99.90;;;;;;5031572;28;20498;-77
2023/12/24 03:02:56;;;;;;;1.00;0.80;;;9.00;99.90;;;;;;5031437;28;20042;-77
2023/12/24 03:05:21;;;;;;;1.50;0.95;;;9.00;99.90;;;;;;5014938;28;20386;-77
2023/12/24 03:07:47;;;;;;;0.77;0.70;;;9.00;99.90;;;;;;5014976;28;20505;-77
2023/12/24 03:10:13;;;;;;;0.60;0.60;;;9.00;99.90;;;;;;5031406;28;20434;-77
2023/12/24 03:12:38;;;;;;;0.77;0.75;;;9.00;99.90;;;;;;5014820;28;20034;-77
2023/12/24 03:15:05;;;;;;;0.70;0.57;;;9.00;99.90;;;;;;5031214;28;20042;-77
2023/12/24 03:17:30;;;;;;;0.57;0.57;;;9.00;99.90;;;;;;5014886;28;20079;-77
2023/12/24 03:19:56;;;;;;;1.15;0.90;;;9.00;99.90;;;;;;5015044;28;20049;-77
2023/12/24 03:22:22;;;;;;;0.40;0.40;;;9.00;99.90;;;;;;5015459;28;20085;-77
2023/12/24 03:24:48;;;;;;;0.63;0.40;;;9.00;99.90;;;;;;5031608;28;20041;-77
2023/12/24 03:27:14;;;;;;;0.60;0.60;;;9.00;99.90;;;;;;5014864;28;20046;-77
2023/12/24 03:29:40;;;;;;;0.52;0.50;;;9.00;99.90;;;;;;5031162;28;20390;-78
2023/12/24 03:32:06;;;;;;;0.70;0.50;;;9.00;99.90;;;;;;5014681;28;20099;-77
2023/12/24 03:34:32;;;;;;;0.52;0.52;;;9.00;99.90;;;;;;5014713;28;20125;-77
2023/12/24 03:36:57;;;;;;;0.82;0.63;;;8.90;99.90;;;;;;5031079;28;20117;-77
2023/12/24 03:39:23;;;;;;;0.52;0.52;;;9.00;99.90;;;;;;5014976;28;20045;-77
2023/12/24 03:41:48;;;;;;;0.70;0.50;;;9.00;99.90;;;;;;5031633;28;20084;-82
2023/12/24 03:44:14;;;;;;;0.75;0.75;;;9.00;99.90;;;;;;5014816;28;20057;-84
2023/12/24 03:46:40;;;;;;;0.52;0.50;;;9.00;99.90;;;;;;5031427;28;20077;-82
2023/12/24 03:49:09;;;;;;;0.63;0.63;;;9.00;99.90;;;;;;5031213;28;20064;-83
2023/12/24 03:51:34;;;;;;;0.65;0.45;;;9.00;99.90;;;;;;5015901;28;20037;-83
2023/12/24 03:54:00;;;;;;;0.60;0.60;;;9.00;99.90;;;;;;5018632;28;20069;-83
2023/12/24 03:56:26;;;;;;;0.50;0.50;;;9.00;99.90;;;;;;5035292;28;20038;-84
2023/12/24 03:58:51;;;;;;;0.50;0.50;;;9.10;99.90;;;;;;5034897;28;20052;-83
2023/12/24 04:01:17;;;;;;;0.50;0.50;;;9.00;99.90;;;;;;5035141;28;20044;-83
2023/12/24 04:03:44;;;;;;;0.73;0.73;;;9.00;99.90;;;;;;5018736;28;20128;-84
2023/12/24 04:06:15;;;;;;;0.52;0.52;;;9.00;99.90;;;;;;5035175;28;20053;-84
2023/12/24 04:08:41;;;;;;;1.00;0.90;;;9.00;99.90;;;;;;5018254;28;20044;-82
2023/12/24 04:11:17;;;;;;;0.73;0.70;;;9.10;99.90;;;;;;5018456;28;20037;-76
2023/12/24 04:13:43;;;;;;;0.73;0.50;;;9.10;99.90;;;;;;5018107;28;20053;-76
2023/12/24 04:16:10;;;;;;;1.20;0.70;;;9.10;99.90;;;;;;5034593;28;20095;-76
2023/12/24 04:18:36;;;;;;;1.50;0.60;;;9.10;99.90;;;;;;5034378;28;20072;-76
2023/12/24 04:21:02;;;;;;;0.65;0.57;;;9.10;99.90;;;;;;5017805;28;20390;-76
2023/12/24 04:23:27;;;;;;;0.63;0.52;;;9.20;99.90;;;;;;5034264;28;20132;-77
2023/12/24 04:25:53;;;;;;;0.50;0.50;;;9.10;99.90;;;;;;5034174;28;20460;-76
2023/12/24 04:28:19;;;;;;;0.70;0.70;;;9.10;99.90;;;;;;5034201;28;20128;-76
2023/12/24 04:30:44;;;;;;;0.50;0.50;;;9.10;99.90;;;;;;5034052;28;20042;-76
2023/12/24 04:33:11;;;;;;;0.50;0.50;;;9.10;99.90;;;;;;5034034;28;20045;-76
2023/12/24 04:35:37;;;;;;;0.65;0.65;;;9.10;99.90;;;;;;5034425;28;20050;-76
2023/12/24 04:38:03;;;;;;;0.30;0.30;;;9.10;99.90;;;;;;5034305;28;20049;-76
2023/12/24 04:40:29;;;;;;;0.43;0.43;;;9.10;99.90;;;;;;5033982;28;20072;-76
2023/12/24 04:42:54;;;;;;;0.63;0.63;;;9.10;99.90;;;;;;5034075;28;20052;-76
2023/12/24 04:45:20;;;;;;;0.65;0.65;;;9.10;99.90;;;;;;5033959;28;20063;-76
2023/12/24 04:47:46;;;;;;;0.47;0.47;;;9.10;99.90;;;;;;5017218;28;20113;-76
2023/12/24 04:50:12;;;;;;;0.40;0.40;;;9.10;99.90;;;;;;5033803;28;20041;-76
2023/12/24 04:52:38;;;;;;;1.45;0.70;;;9.10;99.90;;;;;;5033791;28;20036;-76
2023/12/24 04:55:07;;;;;;;0.40;0.40;;;9.20;99.90;;;;;;5017409;28;20099;-76
2023/12/24 04:57:33;;;;;;;0.50;0.50;;;9.20;99.90;;;;;;5033819;28;20033;-76
2023/12/24 04:59:58;;;;;;;0.43;0.43;;;9.20;99.90;;;;;;5033647;28;20047;-78
2023/12/24 05:02:24;;;;;;;0.43;0.43;;;9.20;99.90;;;;;;5033363;28;20124;-80
2023/12/24 05:04:50;;;;;;;0.50;0.50;;;9.20;99.90;;;;;;5016423;28;20383;-79
2023/12/24 05:07:16;;;;;;;0.55;0.50;;;9.20;99.90;;;;;;5016982;28;20076;-79
2023/12/24 05:09:42;;;;;;;0.40;0.40;;;9.20;99.90;;;;;;5017071;28;20486;-80
2023/12/24 05:12:08;;;;;;;0.40;0.40;;;9.20;99.90;;;;;;5016902;28;20435;-76
2023/12/24 05:14:35;;;;;;;0.40;0.40;;;9.30;99.90;;;;;;5033441;28;20060;-76
2023/12/24 05:17:02;;;;;;;0.32;0.30;;;9.20;99.90;;;;;;5033306;28;20106;-76
2023/12/24 05:19:28;;;;;;;0.50;0.50;;;9.20;99.90;;;;;;5017075;28;20041;-76
2023/12/24 05:21:53;;;;;;;0.50;0.50;;;9.20;99.90;;;;;;5033384;28;20582;-79
2023/12/24 05:24:19;;;;;;;0.40;0.40;;;9.20;99.90;;;;;;5033157;28;20056;-79
2023/12/24 05:26:45;;;;;;;0.30;0.30;;;9.30;99.90;;;;;;5032980;28;20038;-79
2023/12/24 05:29:10;;;;;;;0.55;0.55;;;9.30;99.90;;;;;;5016631;28;20037;-79
2023/12/24 05:31:40;;;;;;;0.45;0.45;;;9.30;99.90;;;;;;5016650;28;20049;-79
2023/12/24 05:34:06;;;;;;;0.73;0.47;;;9.30;99.90;;;;;;5016465;28;20045;-79
2023/12/24 05:36:33;;;;;;;0.50;0.50;;;9.40;99.90;;;;;;5033018;28;20493;-80
2023/12/24 05:38:59;;;;;;;0.50;0.50;;;9.40;99.90;;;;;;5033002;28;20037;-80
2023/12/24 05:41:25;;;;;;;0.40;0.40;;;9.40;99.90;;;;;;5032821;28;20044;-80
2023/12/24 05:43:51;;;;;;;0.43;0.43;;;;;;;;;;5015991;28;20107;-80
2023/12/24 05:46:17;;;;;;;0.45;0.45;;;;;;;;;;5032831;28;20405;-79
2023/12/24 05:48:43;;;;;;;0.40;0.40;;;;;;;;;;5016139;28;20034;-79
2023/12/24 05:51:09;;;;;;;0.52;0.40;;;;;;;;;;5032652;28;20472;-80
2023/12/24 05:53:35;;;;;;;0.52;0.52;;;;;;;;;;5016095;28;20156;-80
2023/12/24 05:56:01;;;;;;;0.40;0.40;;;9.40;99.90;;;;;;5016406;28;20456;-78
2023/12/24 05:58:27;;;;;;;0.63;0.60;;;9.70;99.90;;;;;;5016376;28;20044;-80
2023/12/24 06:00:53;;;;;;;0.55;0.55;;;9.60;99.90;;;;;;5032346;28;20037;-80
2023/12/24 06:03:19;;;;;;;0.50;0.50;;;9.70;99.90;;;;;;5016210;28;20037;-80
2023/12/24 06:05:44;;;;;;;0.50;0.50;;;9.70;99.90;;;;;;5015970;28;20548;-81
2023/12/24 06:08:13;;;;;;;0.40;0.40;;;9.60;99.90;;;;;;5032346;28;20493;-80
2023/12/24 06:10:39;;;;;;;0.98;0.80;;;9.60;99.90;;;;;;5032356;28;20413;-80
2023/12/24 06:13:04;;;;;;;0.40;0.40;;;9.60;99.90;;;;;;5015857;28;20045;-80
2023/12/24 06:15:30;;;;;;;0.40;0.40;;;9.70;99.90;;;;;;5031220;28;20042;-80
2023/12/24 06:17:56;;;;;;;0.60;0.60;;;9.60;99.90;;;;;;5032054;28;20405;-80
2023/12/24 06:20:22;;;;;;;0.70;0.70;;;9.70;99.90;;;;;;5032411;28;20033;-80
2023/12/24 06:22:47;;;;;;;0.50;0.50;;;9.70;99.90;;;;;;5032053;28;20053;-80
2023/12/24 06:25:13;;;;;;;0.60;0.57;;;9.70;99.90;;;;;;5015824;28;20049;-81
2023/12/24 06:27:39;;;;;;;0.50;0.50;;;9.70;99.90;;;;;;5032422;28;20087;-80
2023/12/24 06:30:05;;;;;;;1.30;0.60;;;9.60;99.90;;;;;;5016018;28;20041;-82
2023/12/24 06:32:31;;;;;;;1.02;0.80;;;9.70;99.90;;;;;;5016554;28;20029;-85
2023/12/24 06:34:57;;;;;;;0.68;0.63;;;9.70;99.90;;;;;;5016924;28;20096;-83
2023/12/24 06:37:23;;;;;;;0.68;0.60;;;9.80;99.90;;;;;;5016843;28;20041;-84
2023/12/24 06:39:48;;;;;;;1.65;0.90;;;9.80;99.90;;;;;;5033071;28;20429;-84
2023/12/24 06:42:14;;;;;;;1.02;0.70;;;9.80;99.90;;;;;;5015878;28;20057;-84
2023/12/24 06:44:43;;;;;;;0.70;0.70;;;9.80;99.90;;;;;;5016155;28;20049;-85
2023/12/24 06:47:09;;;;;;;1.45;0.90;;;10.00;99.90;;;;;;5033038;28;20057;-84
2023/12/24 06:49:35;;;;;;;2.00;0.70;;;9.80;99.90;;;;;;5032733;28;20131;-84
2023/12/24 06:52:00;;;;;;;1.13;0.73;;;9.90;99.90;;;;;;5016424;28;20521;-85
2023/12/24 06:54:26;;;;;;;2.40;1.17;;;9.90;99.90;;;;;;5032643;28;20048;-84
2023/12/24 06:56:52;;;;;;;3.25;1.40;;;9.90;99.90;;;;;;5032506;28;20064;-85
2023/12/24 06:59:17;;;;;;;1.35;0.85;;;9.90;99.90;;;;;;5032530;28;20042;-85
2023/12/24 07:01:43;;;;;;;2.17;1.25;;;10.00;99.90;;;;;;5016156;28;20545;-83
2023/12/24 07:04:09;;;;;;;2.50;1.25;;;10.00;99.90;;;;;;5016157;28;20485;-83
2023/12/24 07:06:34;;;;;;;2.10;1.10;;;10.00;99.90;;;;;;5032419;28;20095;-83
2023/12/24 07:09:00;;;;;;;1.98;1.20;;;10.00;99.90;;;;;;5016301;28;20082;-84
2023/12/24 07:11:25;;;;;;;2.88;1.40;;;10.00;99.90;;;;;;5032994;28;20417;-84
2023/12/24 07:13:51;;;;;;;2.95;0.88;;;10.00;99.90;;;;;;5017189;28;20042;-83
2023/12/24 07:16:17;;;;;;;1.33;1.17;;;10.10;99.90;;;;;;5016018;28;20046;-83
2023/12/24 07:18:42;;;;;;;3.60;1.05;;;10.00;99.90;;;;;;5015881;28;20496;-84
2023/12/24 07:21:08;;;;;;;2.17;1.27;;;10.00;99.90;;;;;;5031906;28;20033;-84
2023/12/24 07:23:34;;;;;;;1.13;0.90;;;10.00;99.90;;;;;;5015629;28;20042;-83
2023/12/24 07:25:59;;;;;;;3.60;1.60;;;10.10;99.90;;;;;;5032928;28;20046;-84
2023/12/24 07:28:25;;;;;;;1.67;1.20;;;10.10;99.90;;;;;;5020002;28;20133;-84
2023/12/24 07:30:50;;;;;;;1.92;1.42;;;10.10;99.90;;;;;;5019850;28;20136;-84
2023/12/24 07:33:16;;;;;;;2.15;1.30;;;10.10;99.90;;;;;;5036432;28;20037;-83
2023/12/24 07:35:42;;;;;;;2.05;1.00;;;10.00;99.90;;;;;;5037368;28;20046;-84
2023/12/24 07:38:07;;;;;;;2.83;1.45;;;10.20;99.90;;;;;;5036740;28;20033;-85
2023/12/24 07:40:33;;;;;;;0.85;0.75;;;10.10;99.90;;;;;;5020069;28;20030;-85
2023/12/24 07:42:59;;;;;;;1.75;1.30;;;10.20;99.90;;;;;;5020276;28;20048;-84
2023/12/24 07:45:29;;;;;;;2.53;0.95;;;10.20;99.90;;;;;;5020551;28;20056;-85
2023/12/24 07:47:55;;;;;;;1.90;1.17;;;10.20;99.90;;;;;;5037064;28;20052;-85
2023/12/24 07:50:21;;;;;;;1.15;0.80;;;10.30;99.90;;;;;;5037379;28;20045;-84
2023/12/24 07:52:46;;;;;;;1.75;1.15;;;10.20;99.90;;;;;;5037548;28;20041;-83
2023/12/24 07:55:12;;;;;;;1.48;0.70;;;10.30;99.90;;;;;;5035736;28;20187;-84
2023/12/24 07:57:38;;;;;;;2.40;1.20;;;10.20;99.90;;;;;;5020106;28;20406;-84
2023/12/24 08:00:06;;;;;;;1.73;1.15;;;10.30;99.90;;;;;;5020003;28;20513;-84
2023/12/24 08:02:32;;;;;;;2.55;1.00;;;10.30;99.90;;;;;;5019977;28;20044;-85
2023/12/24 08:04:58;;;;;;;1.05;0.95;;;10.30;99.90;;;;;;5037106;28;20128;-84
2023/12/24 08:07:24;;;;;;;0.98;0.88;;;10.40;99.90;;;;;;5019653;28;20080;-85
2023/12/24 08:09:50;;;;;;;1.95;1.00;;;10.30;99.90;;;;;;5035758;28;20523;-86
2023/12/24 08:12:18;;;;;;;1.85;1.05;;;10.40;99.90;;;;;;5038907;28;20405;-85
2023/12/24 08:14:44;;;;;;;3.75;1.25;;;10.30;99.90;;;;;;5022655;28;20056;-83
2023/12/24 08:17:10;;;;;;;2.80;1.27;;;10.40;99.90;;;;;;5021759;28;20041;-86
2023/12/24 08:19:36;;;;;;;1.55;1.25;;;10.40;99.90;;;;;;5038867;28;20083;-86
2023/12/24 08:22:02;;;;;;;1.88;1.08;;;10.40;99.90;;;;;;5037933;28;20053;-85
2023/12/24 08:24:28;;;;;;;1.42;1.00;;;10.40;99.90;;;;;;5038215;28;20168;-85
2023/12/24 08:26:54;;;;;;;2.58;1.05;;;10.40;99.90;;;;;;5037540;28;20072;-84
2023/12/24 08:29:19;;;;;;;2.65;1.00;;;10.40;99.90;;;;;;5020022;28;20168;-86
2023/12/24 08:31:45;;;;;;;2.47;1.30;;;10.40;99.90;;;;;;5036597;28;20038;-85
2023/12/24 08:34:10;;;;;;;2.20;1.00;;;10.50;99.90;;;;;;5036652;28;20484;-83
2023/12/24 08:36:36;;;;;;;2.55;1.10;;;10.50;99.90;;;;;;5020603;28;20038;-86
2023/12/24 08:39:02;;;;;;;2.10;1.00;;;10.40;99.90;;;;;;5035729;28;20049;-84
2023/12/24 08:41:28;;;;;;;1.27;1.13;;;10.50;99.90;;;;;;5022728;28;20080;-85
2023/12/24 08:43:54;;;;;;;1.65;0.98;;;10.50;99.90;;;;;;5020310;28;20045;-87
2023/12/24 08:46:19;;;;;;;1.77;1.20;;;10.50;99.90;;;;;;5036148;28;20147;-84
2023/12/24 08:48:45;;;;;;;2.97;1.67;;;10.40;99.90;;;;;;5018500;28;20037;-83
2023/12/24 08:51:10;;;;;;;2.20;1.25;;;10.50;99.90;;;;;;5034922;28;20413;-79
2023/12/24 08:53:36;;;;;;;3.03;1.40;;;10.50;99.90;;;;;;5034190;28;20048;-81
2023/12/24 08:56:02;;;;;;;1.35;1.10;;;10.50;99.90;;;;;;5034121;28;20045;-81
2023/12/24 08:58:28;;;;;;;3.13;1.33;;;10.50;99.90;;;;;;5033875;28;20042;-77
2023/12/24 09:00:53;;;;;;;1.85;1.02;;;10.50;99.90;;;;;;5033937;28;20485;-78
2023/12/24 09:03:19;;;;;;;4.28;1.30;;;10.50;99.90;;;;;;5017186;28;20041;-79
2023/12/24 09:05:45;;;;;;;2.45;1.40;;;10.50;99.90;;;;;;5033715;28;20041;-79
2023/12/24 09:08:10;;;;;;;2.50;1.35;;;10.50;99.90;;;;;;5033750;28;20038;-80
2023/12/24 09:10:36;;;;;;;1.98;1.15;;;10.50;99.90;;;;;;5033582;28;20095;-79
2023/12/24 09:13:02;;;;;;;2.35;1.30;;;10.50;99.90;;;;;;5016812;28;20044;-79
2023/12/24 09:15:28;;;;;;;2.42;1.60;;;10.50;99.90;;;;;;5033214;28;20129;-79
2023/12/24 09:17:53;;;;;;;3.20;1.52;;;10.50;99.90;;;;;;5016869;28;20069;-80
2023/12/24 09:20:19;;;;;;;2.38;1.30;;;10.60;99.90;;;;;;5016810;28;20508;-79
2023/12/24 09:22:45;;;;;;;2.05;1.08;;;10.60;99.90;;;;;;5016839;28;20044;-79
2023/12/24 09:25:10;;;;;;;2.92;1.52;;;10.50;99.90;;;;;;5016757;28;20100;-79
2023/12/24 09:27:36;;;;;;;3.78;1.38;;;10.50;99.90;;;;;;5016881;28;20048;-79
2023/12/24 09:30:04;;;;;;;2.60;1.55;;;10.50;99.90;;;;;;5016758;28;20485;-79
2023/12/24 09:32:33;;;;;;;2.17;1.20;;;10.50;99.90;;;;;;5016528;28;20045;-79
2023/12/24 09:34:58;;;;;;;2.22;1.23;;;10.50;99.90;;;;;;5033233;28;20057;-80
2023/12/24 09:37:25;;;;;;;3.50;1.40;;;10.50;99.90;;;;;;5034884;28;20397;-79
2023/12/24 09:39:52;;;;;;;2.17;1.30;;;10.60;99.90;;;;;;5018033;28;20037;-79
2023/12/24 09:42:18;;;;;;;1.40;0.93;;;10.50;99.90;;;;;;5033154;28;20052;-79
2023/12/24 09:44:44;;;;;;;1.67;1.20;;;10.60;99.90;;;;;;5016417;28;20053;-79
2023/12/24 09:47:10;;;;;;;1.30;1.00;;;10.60;99.90;;;;;;5032981;28;20099;-79
2023/12/24 09:49:36;;;;;;;2.70;1.33;;;10.60;99.90;;;;;;5032965;28;20041;-79
2023/12/24 09:52:02;;;;;;;1.90;1.23;;;10.60;99.90;;;;;;5032597;28;20392;-79
2023/12/24 09:54:28;;;;;;;1.48;1.10;;;10.60;99.90;;;;;;5032695;28;20093;-78
2023/12/24 09:56:55;;;;;;;2.25;1.20;;;10.60;99.90;;;;;;5016615;28;20097;-80
2023/12/24 09:59:21;;;;;;;2.35;1.27;;;10.60;99.90;;;;;;5032480;28;20050;-79
2023/12/24 10:01:47;;;;;;;1.73;1.23;;;10.60;99.90;;;;;;5032661;28;20045;-77
2023/12/24 10:04:13;;;;;;;5.13;1.92;;;10.60;99.90;;;;;;5016198;28;20041;-77
2023/12/24 10:06:58;;;;;;;1.75;0.90;;;10.70;99.90;;;;;;5016267;28;20087;-77
2023/12/24 10:09:41;;;;;;;1.88;1.27;;;10.70;99.90;;;;;;5032289;28;20045;-77
2023/12/24 10:12:08;;;;;;;2.75;1.77;;;10.80;99.90;;;;;;5033749;28;20448;-85
2023/12/24 10:14:35;;;;;;;2.40;1.42;;;10.70;99.90;;;;;;5033708;28;20033;-84
2023/12/24 10:17:03;;;;;;;2.67;1.40;;;10.80;99.90;;;;;;5032803;28;20044;-82
2023/12/24 10:19:29;;;;;;;2.50;1.50;;;10.80;99.90;;;;;;5016354;28;20037;-83
2023/12/24 10:22:04;;;;;;;3.97;1.35;;;10.80;99.90;;;;;;5016570;28;20073;-83
2023/12/24 10:24:31;;;;;;;2.50;1.27;;;10.80;99.90;;;;;;5032980;28;20040;-82
2023/12/24 10:27:07;;;;;;;2.65;1.40;;;10.90;99.90;;;;;;5016403;28;20120;-82
2023/12/24 10:29:35;;;;;;;1.63;1.27;;;10.80;99.90;;;;;;5032608;28;20077;-81
2023/12/24 10:32:02;;;;;;;3.28;1.35;;;10.80;99.90;;;;;;5016060;28;20053;-80
2023/12/24 10:34:28;;;;;;;2.75;1.10;;;10.90;99.90;;;;;;5035123;28;20045;-84
2023/12/24 10:36:55;;;;;;;2.33;1.20;;;10.90;99.90;;;;;;5035211;28;20038;-83
2023/12/24 10:39:24;;;;;;;2.03;1.30;;;10.90;99.90;;;;;;5035780;28;20120;-82
2023/12/24 10:41:59;;;;;;;1.95;1.42;;;10.90;99.90;;;;;;5016373;28;20052;-83
2023/12/24 10:44:24;;;;;;;1.85;0.98;;;10.90;99.90;;;;;;5031975;28;20059;-83
2023/12/24 10:46:50;;;;;;;3.60;1.45;;;10.90;99.90;;;;;;5031891;28;20049;-82
2023/12/24 10:49:16;;;;;;;1.45;1.17;;;11.00;99.90;;;;;;5015659;28;20052;-83
2023/12/24 10:51:42;;;;;;;4.45;1.70;;;11.00;99.90;;;;;;5015574;28;20041;-84
2023/12/24 10:54:08;;;;;;;1.33;1.13;;;11.00;99.90;;;;;;5031621;28;20099;-82
2023/12/24 10:56:54;;;;;;;3.00;1.17;;;11.00;99.90;;;;;;5015618;28;20033;-82
2023/12/24 10:59:54;;;;;;;0.70;0.57;;;11.00;99.90;;;;;;5015394;28;20034;-81
2023/12/24 11:02:20;;;;;;;2.03;1.15;;;11.10;99.90;;;;;;5031082;28;20045;-83
2023/12/24 11:04:47;;;;;;;1.55;0.98;;;11.10;99.90;;;;;;5031798;28;20045;-82
2023/12/24 11:07:31;;;;;;;1.50;1.00;;;;;;;;;;5031766;28;20067;-83
2023/12/24 11:09:57;;;;;;;2.58;1.27;;;11.30;99.90;;;;;;5031734;28;20523;-80
2023/12/24 11:12:32;;;;;;;1.33;0.95;;;11.30;99.90;;;;;;5031663;28;20073;-79
2023/12/24 11:14:59;;;;;;;2.35;1.27;;;11.30;99.90;;;;;;5031646;28;20045;-80
2023/12/24 11:17:34;;;;;;;2.83;1.42;;;11.50;99.90;;;;;;5031893;28;20041;-80
2023/12/24 11:20:19;;;;;;;2.15;1.27;;;;;;;;;;5031763;28;20401;-81
2023/12/24 11:23:03;;;;;;;2.13;1.35;;;11.30;99.90;;;;;;5033302;28;20048;-82
2023/12/24 11:25:39;;;;;;;2.83;1.00;;;11.30;99.90;;;;;;5033918;28;20045;-82
2023/12/24 11:28:05;;;;;;;2.10;1.20;;;11.30;99.90;;;;;;5018277;28;20049;-81
2023/12/24 11:30:49;;;;;;;1.83;0.90;;;11.30;99.90;;;;;;5034864;28;20413;-82
2023/12/24 11:33:34;;;;;;;2.28;1.38;;;11.30;99.90;;;;;;5050887;28;20109;-81
2023/12/24 11:36:01;;;;;;;1.35;1.02;;;11.30;99.90;;;;;;5054916;28;20060;-81
2023/12/24 11:38:36;;;;;;;1.83;1.00;;;11.20;99.90;;;;;;5051465;28;20085;-81
2023/12/24 11:41:05;;;;;;;2.72;1.25;;;11.20;99.90;;;;;;5042375;28;20051;-82
2023/12/24 11:43:30;;;;;;;4.60;1.67;;;11.30;99.90;;;;;;5025396;28;20118;-82
2023/12/24 11:45:57;;;;;;;1.42;1.00;;;11.30;99.90;;;;;;5026616;28;20041;-83
2023/12/24 11:48:28;;;;;;;2.67;1.15;;;11.30;99.90;;;;;;5043067;28;20045;-84
2023/12/24 11:51:07;;;;;;;3.38;1.33;;;11.30;99.90;;;;;;5022373;28;20045;-81
2023/12/24 11:53:41;;;;;;;1.50;0.90;;;11.30;99.90;;;;;;5036942;28;20057;-81
2023/12/24 11:56:12;;;;;;;1.30;0.90;;;11.30;99.90;;;;;;5035314;28;20034;-79
2023/12/24 11:58:39;;;;;;;1.70;1.20;;;11.30;99.90;;;;;;5016696;28;20034;-78
2023/12/24 12:01:05;;;;;;;2.42;1.05;;;11.40;99.90;;;;;;5031963;28;20056;-80
2023/12/24 12:03:32;;;;;;;2.05;1.23;;;11.40;99.90;;;;;;5032844;28;20045;-79
2023/12/24 12:06:03;;;;;;;3.47;0.90;;;11.30;99.90;;;;;;5015763;28;20049;-80
2023/12/24 12:08:30;;;;;;;1.02;0.93;;;11.40;99.90;;;;;;5031872;28;20091;-81
2023/12/24 12:10:57;;;;;;;1.67;1.10;;;11.30;99.90;;;;;;5032917;28;20463;-80
2023/12/24 12:13:22;;;;;;;3.05;1.33;;;11.40;99.90;;;;;;5019456;28;20037;-82
2023/12/24 12:15:48;;;;;;;2.35;1.13;;;11.30;99.90;;;;;;5035882;28;20128;-82
2023/12/24 12:18:15;;;;;;;2.55;1.05;;;11.30;99.90;;;;;;5035692;28;20448;-83
2023/12/24 12:20:41;;;;;;;2.13;1.00;;;11.30;99.90;;;;;;5019556;28;20042;-75
2023/12/24 12:23:08;;;;;;;1.45;1.00;;;11.40;99.90;;;;;;5018084;28;20520;-76
2023/12/24 12:25:34;;;;;;;1.20;0.93;;;11.40;99.90;;;;;;5034353;28;20187;-76
2023/12/24 12:27:59;;;;;;;2.35;1.23;;;11.60;99.90;;;;;;5034221;28;20549;-77
2023/12/24 12:30:25;;;;;;;3.10;1.42;;;11.40;99.90;;;;;;5017741;28;20068;-76
2023/12/24 12:32:51;;;;;;;3.17;1.63;;;11.40;99.90;;;;;;5034167;28;20532;-76
2023/12/24 12:35:17;;;;;;;3.47;1.27;;;11.30;99.90;;;;;;5033988;28;20396;-76
2023/12/24 12:37:42;;;;;;;3.13;1.90;;;11.30;99.90;;;;;;5034217;28;20488;-76
2023/12/24 12:40:09;;;;;;;1.73;1.02;;;11.50;99.90;;;;;;5034046;28;20445;-75
2023/12/24 12:42:35;;;;;;;2.47;1.42;;;11.40;99.90;;;;;;5017887;28;20103;-76
2023/12/24 12:45:01;;;;;;;1.33;0.80;;;11.30;99.90;;;;;;5033843;28;20390;-75
2023/12/24 12:47:26;;;;;;;1.20;0.77;;;11.40;99.90;;;;;;5033864;28;20065;-76
2023/12/24 12:49:53;;;;;;;1.67;1.33;;;11.30;99.90;;;;;;5034079;28;20078;-76
2023/12/24 12:52:19;;;;;;;3.45;1.42;;;11.30;99.90;;;;;;5033714;28;20045;-76